sensor_id;sensor_type;location;lat;lon;timestamp;P1;durP1;ratioP1;P2;durP2;ratioP2
47772;SDS011;33534;51.028;13.716;2022-08-01T00:01:13;3.40;;;2.50;;
47772;SDS011;33534;51.028;13.716;2022-08-01T00:03:39;2.78;;;2.10;;
47772;SDS011;33534;51.028;13.716;2022-08-01T00:06:05;3.03;;;2.30;;
47772;SDS011;33534;51.028;13.716;2022-08-01T00:08:30;3.90;;;2.83;;
47772;SDS011;33534;51.028;13.716;2022-08-01T00:10:56;2.70;;;2.20;;
47772;SDS011;33534;51.028;13.716;2022-08-01T00:13:22;4.28;;;2.40;;
47772;SDS011;33534;51.028;13.716;2022-08-01T00:15:47;2.40;;;2.15;;
47772;SDS011;33534;51.028;13.716;2022-08-01T00:18:13;3.65;;;2.72;;
47772;SDS011;33534;51.028;13.716;2022-08-01T00:20:38;2.33;;;2.13;;
47772;SDS011;33534;51.028;13.716;2022-08-01T00:23:04;3.25;;;2.40;;
47772;SDS011;33534;51.028;13.716;2022-08-01T00:25:30;4.28;;;2.17;;
47772;SDS011;33534;51.028;13.716;2022-08-01T00:27:55;3.90;;;2.45;;
47772;SDS011;33534;51.028;13.716;2022-08-01T00:30:21;3.95;;;1.85;;
47772;SDS011;33534;51.028;13.716;2022-08-01T00:32:46;3.75;;;2.05;;
47772;SDS011;33534;51.028;13.716;2022-08-01T00:35:12;3.38;;;2.40;;
47772;SDS011;33534;51.028;13.716;2022-08-01T00:37:38;4.30;;;2.40;;
47772;SDS011;33534;51.028;13.716;2022-08-01T00:40:04;5.85;;;2.55;;
47772;SDS011;33534;51.028;13.716;2022-08-01T00:42:31;3.15;;;2.38;;
47772;SDS011;33534;51.028;13.716;2022-08-01T00:44:56;4.25;;;2.63;;
47772;SDS011;33534;51.028;13.716;2022-08-01T00:47:22;4.40;;;2.47;;
47772;SDS011;33534;51.028;13.716;2022-08-01T00:49:47;7.32;;;2.65;;
47772;SDS011;33534;51.028;13.716;2022-08-01T00:52:13;4.00;;;2.47;;
47772;SDS011;33534;51.028;13.716;2022-08-01T00:54:39;4.30;;;2.75;;
47772;SDS011;33534;51.028;13.716;2022-08-01T00:57:05;2.83;;;2.30;;
47772;SDS011;33534;51.028;13.716;2022-08-01T00:59:31;4.03;;;2.53;;
47772;SDS011;33534;51.028;13.716;2022-08-01T01:01:57;2.63;;;2.40;;
47772;SDS011;33534;51.028;13.716;2022-08-01T01:04:23;5.47;;;2.63;;
47772;SDS011;33534;51.028;13.716;2022-08-01T01:09:36;3.13;;;2.33;;
47772;SDS011;33534;51.028;13.716;2022-08-01T01:12:16;5.00;;;2.20;;
47772;SDS011;33534;51.028;13.716;2022-08-01T01:15:16;5.10;;;2.90;;
47772;SDS011;33534;51.028;13.716;2022-08-01T01:18:07;3.30;;;2.92;;
47772;SDS011;33534;51.028;13.716;2022-08-01T01:20:38;3.85;;;2.65;;
47772;SDS011;33534;51.028;13.716;2022-08-01T01:28:34;4.18;;;2.63;;
47772;SDS011;33534;51.028;13.716;2022-08-01T01:31:41;4.45;;;2.53;;
47772;SDS011;33534;51.028;13.716;2022-08-01T01:34:21;3.35;;;2.70;;
47772;SDS011;33534;51.028;13.716;2022-08-01T01:36:48;4.63;;;2.70;;
47772;SDS011;33534;51.028;13.716;2022-08-01T01:39:15;6.15;;;2.83;;
47772;SDS011;33534;51.028;13.716;2022-08-01T01:41:42;5.68;;;2.38;;
47772;SDS011;33534;51.028;13.716;2022-08-01T01:44:09;3.17;;;2.33;;
47772;SDS011;33534;51.028;13.716;2022-08-01T01:46:36;3.50;;;2.45;;
47772;SDS011;33534;51.028;13.716;2022-08-01T01:49:02;5.05;;;2.28;;
47772;SDS011;33534;51.028;13.716;2022-08-01T01:51:30;3.00;;;2.15;;
47772;SDS011;33534;51.028;13.716;2022-08-01T01:53:56;6.57;;;2.70;;
47772;SDS011;33534;51.028;13.716;2022-08-01T01:56:24;6.80;;;2.90;;
47772;SDS011;33534;51.028;13.716;2022-08-01T01:58:52;3.25;;;2.70;;
47772;SDS011;33534;51.028;13.716;2022-08-01T02:01:25;2.80;;;2.60;;
47772;SDS011;33534;51.028;13.716;2022-08-01T02:03:54;5.50;;;2.85;;
47772;SDS011;33534;51.028;13.716;2022-08-01T02:06:23;6.25;;;3.00;;
47772;SDS011;33534;51.028;13.716;2022-08-01T02:08:50;6.45;;;2.92;;
47772;SDS011;33534;51.028;13.716;2022-08-01T02:11:19;3.10;;;2.53;;
47772;SDS011;33534;51.028;13.716;2022-08-01T02:13:51;3.22;;;2.38;;
47772;SDS011;33534;51.028;13.716;2022-08-01T02:16:24;3.13;;;2.78;;
47772;SDS011;33534;51.028;13.716;2022-08-01T02:18:52;3.60;;;2.25;;
47772;SDS011;33534;51.028;13.716;2022-08-01T02:21:20;3.88;;;2.55;;
47772;SDS011;33534;51.028;13.716;2022-08-01T02:23:51;3.17;;;2.58;;
47772;SDS011;33534;51.028;13.716;2022-08-01T02:26:19;3.47;;;3.00;;
47772;SDS011;33534;51.028;13.716;2022-08-01T02:28:49;3.83;;;2.80;;
47772;SDS011;33534;51.028;13.716;2022-08-01T02:31:20;3.35;;;2.55;;
47772;SDS011;33534;51.028;13.716;2022-08-01T02:33:53;4.22;;;2.70;;
47772;SDS011;33534;51.028;13.716;2022-08-01T02:36:28;10.18;;;2.95;;
47772;SDS011;33534;51.028;13.716;2022-08-01T02:38:56;4.25;;;3.15;;
47772;SDS011;33534;51.028;13.716;2022-08-01T02:41:26;3.75;;;2.90;;
47772;SDS011;33534;51.028;13.716;2022-08-01T02:43:57;3.63;;;2.85;;
47772;SDS011;33534;51.028;13.716;2022-08-01T02:47:09;3.72;;;2.95;;
47772;SDS011;33534;51.028;13.716;2022-08-01T02:49:21;4.10;;;3.08;;
47772;SDS011;33534;51.028;13.716;2022-08-01T02:51:48;3.92;;;2.72;;
47772;SDS011;33534;51.028;13.716;2022-08-01T02:54:16;4.18;;;2.70;;
47772;SDS011;33534;51.028;13.716;2022-08-01T02:56:43;3.72;;;2.63;;
47772;SDS011;33534;51.028;13.716;2022-08-01T02:59:12;3.10;;;2.80;;
47772;SDS011;33534;51.028;13.716;2022-08-01T03:01:42;3.63;;;3.22;;
47772;SDS011;33534;51.028;13.716;2022-08-01T03:04:09;4.22;;;2.90;;
47772;SDS011;33534;51.028;13.716;2022-08-01T03:06:37;4.82;;;2.90;;
47772;SDS011;33534;51.028;13.716;2022-08-01T03:09:04;4.93;;;2.80;;
47772;SDS011;33534;51.028;13.716;2022-08-01T03:11:31;4.93;;;3.00;;
47772;SDS011;33534;51.028;13.716;2022-08-01T03:14:00;54.72;;;28.40;;
47772;SDS011;33534;51.028;13.716;2022-08-01T03:16:30;134.85;;;75.25;;
47772;SDS011;33534;51.028;13.716;2022-08-01T03:18:58;32.83;;;14.82;;
47772;SDS011;33534;51.028;13.716;2022-08-01T03:21:26;25.73;;;13.80;;
47772;SDS011;33534;51.028;13.716;2022-08-01T03:23:54;27.58;;;14.80;;
47772;SDS011;33534;51.028;13.716;2022-08-01T03:26:31;9.73;;;4.50;;
47772;SDS011;33534;51.028;13.716;2022-08-01T03:29:04;4.97;;;3.15;;
47772;SDS011;33534;51.028;13.716;2022-08-01T03:31:33;5.82;;;2.33;;
47772;SDS011;33534;51.028;13.716;2022-08-01T03:34:00;4.30;;;2.58;;
47772;SDS011;33534;51.028;13.716;2022-08-01T03:36:26;4.72;;;2.75;;
47772;SDS011;33534;51.028;13.716;2022-08-01T03:38:58;5.65;;;2.70;;
47772;SDS011;33534;51.028;13.716;2022-08-01T03:41:28;4.70;;;3.22;;
47772;SDS011;33534;51.028;13.716;2022-08-01T03:44:07;5.20;;;2.90;;
47772;SDS011;33534;51.028;13.716;2022-08-01T03:46:48;4.72;;;2.90;;
47772;SDS011;33534;51.028;13.716;2022-08-01T03:49:22;5.68;;;2.75;;
47772;SDS011;33534;51.028;13.716;2022-08-01T03:51:52;3.42;;;2.90;;
47772;SDS011;33534;51.028;13.716;2022-08-01T03:54:23;4.82;;;2.55;;
47772;SDS011;33534;51.028;13.716;2022-08-01T03:56:51;4.63;;;3.28;;
47772;SDS011;33534;51.028;13.716;2022-08-01T03:59:18;6.85;;;3.40;;
47772;SDS011;33534;51.028;13.716;2022-08-01T04:01:45;3.33;;;3.03;;
47772;SDS011;33534;51.028;13.716;2022-08-01T04:04:11;4.57;;;3.17;;
47772;SDS011;33534;51.028;13.716;2022-08-01T04:06:41;3.00;;;2.70;;
47772;SDS011;33534;51.028;13.716;2022-08-01T04:11:35;5.63;;;3.38;;
47772;SDS011;33534;51.028;13.716;2022-08-01T04:14:01;6.45;;;3.30;;
47772;SDS011;33534;51.028;13.716;2022-08-01T04:16:26;5.60;;;3.95;;
47772;SDS011;33534;51.028;13.716;2022-08-01T04:18:52;5.50;;;2.90;;
47772;SDS011;33534;51.028;13.716;2022-08-01T04:21:18;3.47;;;2.60;;
47772;SDS011;33534;51.028;13.716;2022-08-01T04:23:47;5.78;;;3.17;;
47772;SDS011;33534;51.028;13.716;2022-08-01T04:26:16;5.35;;;3.20;;
47772;SDS011;33534;51.028;13.716;2022-08-01T04:28:44;4.38;;;3.20;;
47772;SDS011;33534;51.028;13.716;2022-08-01T04:31:13;3.70;;;2.80;;
47772;SDS011;33534;51.028;13.716;2022-08-01T04:33:42;5.93;;;3.10;;
47772;SDS011;33534;51.028;13.716;2022-08-01T04:36:10;3.10;;;2.80;;
47772;SDS011;33534;51.028;13.716;2022-08-01T04:38:39;3.95;;;2.78;;
47772;SDS011;33534;51.028;13.716;2022-08-01T04:41:07;3.75;;;2.72;;
47772;SDS011;33534;51.028;13.716;2022-08-01T04:43:37;3.20;;;2.90;;
47772;SDS011;33534;51.028;13.716;2022-08-01T04:46:03;6.28;;;2.78;;
47772;SDS011;33534;51.028;13.716;2022-08-01T04:48:31;5.18;;;3.05;;
47772;SDS011;33534;51.028;13.716;2022-08-01T04:50:59;5.22;;;2.80;;
47772;SDS011;33534;51.028;13.716;2022-08-01T04:53:25;6.00;;;3.00;;
47772;SDS011;33534;51.028;13.716;2022-08-01T04:55:51;3.47;;;2.40;;
47772;SDS011;33534;51.028;13.716;2022-08-01T04:58:17;7.95;;;3.03;;
47772;SDS011;33534;51.028;13.716;2022-08-01T05:00:43;4.15;;;3.15;;
47772;SDS011;33534;51.028;13.716;2022-08-01T05:03:08;3.30;;;3.00;;
47772;SDS011;33534;51.028;13.716;2022-08-01T05:05:34;5.70;;;3.08;;
47772;SDS011;33534;51.028;13.716;2022-08-01T05:08:00;6.85;;;3.10;;
47772;SDS011;33534;51.028;13.716;2022-08-01T05:10:25;5.05;;;3.20;;
47772;SDS011;33534;51.028;13.716;2022-08-01T05:12:52;5.15;;;2.83;;
47772;SDS011;33534;51.028;13.716;2022-08-01T05:15:17;5.70;;;2.75;;
47772;SDS011;33534;51.028;13.716;2022-08-01T05:17:43;3.55;;;2.67;;
47772;SDS011;33534;51.028;13.716;2022-08-01T05:20:09;3.38;;;2.83;;
47772;SDS011;33534;51.028;13.716;2022-08-01T05:22:36;4.63;;;2.65;;
47772;SDS011;33534;51.028;13.716;2022-08-01T05:25:02;4.93;;;3.03;;
47772;SDS011;33534;51.028;13.716;2022-08-01T05:27:29;3.88;;;2.65;;
47772;SDS011;33534;51.028;13.716;2022-08-01T05:29:55;3.03;;;2.72;;
47772;SDS011;33534;51.028;13.716;2022-08-01T05:32:21;5.38;;;3.42;;
47772;SDS011;33534;51.028;13.716;2022-08-01T05:34:47;3.40;;;2.50;;
47772;SDS011;33534;51.028;13.716;2022-08-01T05:37:12;3.08;;;2.30;;
47772;SDS011;33534;51.028;13.716;2022-08-01T05:39:38;5.38;;;2.53;;
47772;SDS011;33534;51.028;13.716;2022-08-01T05:42:03;4.13;;;2.42;;
47772;SDS011;33534;51.028;13.716;2022-08-01T05:44:29;4.53;;;2.20;;
47772;SDS011;33534;51.028;13.716;2022-08-01T05:46:55;6.13;;;2.08;;
47772;SDS011;33534;51.028;13.716;2022-08-01T05:49:21;5.88;;;2.38;;
47772;SDS011;33534;51.028;13.716;2022-08-01T05:51:47;4.88;;;2.40;;
47772;SDS011;33534;51.028;13.716;2022-08-01T05:54:13;5.07;;;2.22;;
47772;SDS011;33534;51.028;13.716;2022-08-01T05:56:39;6.68;;;2.05;;
47772;SDS011;33534;51.028;13.716;2022-08-01T05:59:05;2.95;;;2.03;;
47772;SDS011;33534;51.028;13.716;2022-08-01T06:01:31;2.15;;;1.92;;
47772;SDS011;33534;51.028;13.716;2022-08-01T06:03:57;4.05;;;2.75;;
47772;SDS011;33534;51.028;13.716;2022-08-01T06:06:23;3.15;;;2.40;;
47772;SDS011;33534;51.028;13.716;2022-08-01T06:08:52;3.60;;;2.42;;
47772;SDS011;33534;51.028;13.716;2022-08-01T06:11:18;5.78;;;2.70;;
47772;SDS011;33534;51.028;13.716;2022-08-01T06:13:47;3.63;;;2.20;;
47772;SDS011;33534;51.028;13.716;2022-08-01T06:16:13;4.68;;;2.40;;
47772;SDS011;33534;51.028;13.716;2022-08-01T06:19:00;2.47;;;2.28;;
47772;SDS011;33534;51.028;13.716;2022-08-01T06:21:25;2.83;;;2.15;;
47772;SDS011;33534;51.028;13.716;2022-08-01T06:23:59;4.55;;;2.60;;
47772;SDS011;33534;51.028;13.716;2022-08-01T06:26:38;2.40;;;2.17;;
47772;SDS011;33534;51.028;13.716;2022-08-01T06:29:05;2.67;;;2.42;;
47772;SDS011;33534;51.028;13.716;2022-08-01T06:31:33;6.55;;;2.40;;
47772;SDS011;33534;51.028;13.716;2022-08-01T06:33:59;4.30;;;2.47;;
47772;SDS011;33534;51.028;13.716;2022-08-01T06:36:28;5.55;;;2.60;;
47772;SDS011;33534;51.028;13.716;2022-08-01T06:39:02;4.25;;;2.15;;
47772;SDS011;33534;51.028;13.716;2022-08-01T06:41:32;3.30;;;2.30;;
47772;SDS011;33534;51.028;13.716;2022-08-01T06:44:08;3.38;;;2.35;;
47772;SDS011;33534;51.028;13.716;2022-08-01T06:46:40;6.35;;;2.83;;
47772;SDS011;33534;51.028;13.716;2022-08-01T06:49:06;6.82;;;2.72;;
47772;SDS011;33534;51.028;13.716;2022-08-01T06:51:32;6.53;;;3.17;;
47772;SDS011;33534;51.028;13.716;2022-08-01T06:54:04;3.28;;;2.97;;
47772;SDS011;33534;51.028;13.716;2022-08-01T06:56:33;4.10;;;3.10;;
47772;SDS011;33534;51.028;13.716;2022-08-01T06:59:05;5.90;;;3.22;;
47772;SDS011;33534;51.028;13.716;2022-08-01T07:01:38;5.70;;;3.08;;
47772;SDS011;33534;51.028;13.716;2022-08-01T07:04:05;6.45;;;3.95;;
47772;SDS011;33534;51.028;13.716;2022-08-01T07:06:31;6.30;;;3.35;;
47772;SDS011;33534;51.028;13.716;2022-08-01T07:08:57;6.97;;;4.47;;
47772;SDS011;33534;51.028;13.716;2022-08-01T07:11:25;7.00;;;4.13;;
47772;SDS011;33534;51.028;13.716;2022-08-01T07:13:51;5.78;;;4.80;;
47772;SDS011;33534;51.028;13.716;2022-08-01T07:16:17;8.77;;;4.85;;
47772;SDS011;33534;51.028;13.716;2022-08-01T07:18:43;6.50;;;4.82;;
47772;SDS011;33534;51.028;13.716;2022-08-01T07:21:09;5.90;;;5.32;;
47772;SDS011;33534;51.028;13.716;2022-08-01T07:23:35;5.38;;;4.65;;
47772;SDS011;33534;51.028;13.716;2022-08-01T07:26:02;7.07;;;5.00;;
47772;SDS011;33534;51.028;13.716;2022-08-01T07:28:29;7.10;;;4.40;;
47772;SDS011;33534;51.028;13.716;2022-08-01T07:30:56;4.95;;;4.45;;
47772;SDS011;33534;51.028;13.716;2022-08-01T07:33:22;5.57;;;4.57;;
47772;SDS011;33534;51.028;13.716;2022-08-01T07:35:48;5.35;;;4.80;;
47772;SDS011;33534;51.028;13.716;2022-08-01T07:38:14;4.78;;;3.88;;
47772;SDS011;33534;51.028;13.716;2022-08-01T07:40:42;4.32;;;3.30;;
47772;SDS011;33534;51.028;13.716;2022-08-01T07:43:11;3.90;;;2.90;;
47772;SDS011;33534;51.028;13.716;2022-08-01T07:45:37;2.88;;;2.65;;
47772;SDS011;33534;51.028;13.716;2022-08-01T07:48:03;4.22;;;2.65;;
47772;SDS011;33534;51.028;13.716;2022-08-01T07:50:30;3.38;;;3.08;;
47772;SDS011;33534;51.028;13.716;2022-08-01T07:52:56;2.75;;;2.50;;
47772;SDS011;33534;51.028;13.716;2022-08-01T07:55:22;2.60;;;2.40;;
47772;SDS011;33534;51.028;13.716;2022-08-01T07:57:47;2.55;;;1.90;;
47772;SDS011;33534;51.028;13.716;2022-08-01T08:00:13;3.13;;;1.98;;
47772;SDS011;33534;51.028;13.716;2022-08-01T08:02:39;2.83;;;1.90;;
47772;SDS011;33534;51.028;13.716;2022-08-01T08:05:05;2.30;;;2.00;;
47772;SDS011;33534;51.028;13.716;2022-08-01T08:07:33;3.25;;;1.75;;
47772;SDS011;33534;51.028;13.716;2022-08-01T08:09:59;2.83;;;1.92;;
47772;SDS011;33534;51.028;13.716;2022-08-01T08:12:25;1.80;;;1.70;;
47772;SDS011;33534;51.028;13.716;2022-08-01T08:14:51;1.90;;;1.73;;
47772;SDS011;33534;51.028;13.716;2022-08-01T08:17:17;5.28;;;1.48;;
47772;SDS011;33534;51.028;13.716;2022-08-01T08:19:43;2.17;;;1.40;;
47772;SDS011;33534;51.028;13.716;2022-08-01T08:22:09;1.95;;;1.52;;
47772;SDS011;33534;51.028;13.716;2022-08-01T08:24:36;3.03;;;1.33;;
47772;SDS011;33534;51.028;13.716;2022-08-01T08:27:03;3.10;;;1.30;;
47772;SDS011;33534;51.028;13.716;2022-08-01T08:29:29;2.10;;;1.20;;
47772;SDS011;33534;51.028;13.716;2022-08-01T08:31:57;2.47;;;0.77;;
47772;SDS011;33534;51.028;13.716;2022-08-01T08:34:24;1.02;;;0.90;;
47772;SDS011;33534;51.028;13.716;2022-08-01T08:36:51;1.55;;;1.10;;
47772;SDS011;33534;51.028;13.716;2022-08-01T08:39:17;2.13;;;1.10;;
47772;SDS011;33534;51.028;13.716;2022-08-01T08:41:43;1.33;;;1.23;;
47772;SDS011;33534;51.028;13.716;2022-08-01T08:44:09;2.85;;;1.02;;
47772;SDS011;33534;51.028;13.716;2022-08-01T08:46:40;1.00;;;0.90;;
47772;SDS011;33534;51.028;13.716;2022-08-01T08:49:07;1.38;;;1.00;;
47772;SDS011;33534;51.028;13.716;2022-08-01T08:51:34;1.00;;;0.93;;
47772;SDS011;33534;51.028;13.716;2022-08-01T08:54:03;1.75;;;1.13;;
47772;SDS011;33534;51.028;13.716;2022-08-01T08:56:31;1.23;;;0.77;;
47772;SDS011;33534;51.028;13.716;2022-08-01T08:58:59;1.55;;;1.00;;
47772;SDS011;33534;51.028;13.716;2022-08-01T09:01:26;1.02;;;0.98;;
47772;SDS011;33534;51.028;13.716;2022-08-01T09:03:51;2.58;;;0.95;;
47772;SDS011;33534;51.028;13.716;2022-08-01T09:06:18;1.27;;;0.93;;
47772;SDS011;33534;51.028;13.716;2022-08-01T09:08:44;0.80;;;0.68;;
47772;SDS011;33534;51.028;13.716;2022-08-01T09:11:11;0.85;;;0.82;;
47772;SDS011;33534;51.028;13.716;2022-08-01T09:13:37;1.88;;;0.98;;
47772;SDS011;33534;51.028;13.716;2022-08-01T09:16:02;4.72;;;1.17;;
47772;SDS011;33534;51.028;13.716;2022-08-01T09:26:04;1.42;;;1.30;;
47772;SDS011;33534;51.028;13.716;2022-08-01T09:28:30;5.38;;;1.25;;
47772;SDS011;33534;51.028;13.716;2022-08-01T09:30:57;1.63;;;1.20;;
47772;SDS011;33534;51.028;13.716;2022-08-01T09:33:23;1.33;;;1.23;;
47772;SDS011;33534;51.028;13.716;2022-08-01T09:35:56;1.15;;;1.05;;
47772;SDS011;33534;51.028;13.716;2022-08-01T09:38:23;1.08;;;0.73;;
47772;SDS011;33534;51.028;13.716;2022-08-01T09:43:19;1.58;;;1.10;;
47772;SDS011;33534;51.028;13.716;2022-08-01T09:45:47;1.10;;;1.00;;
47772;SDS011;33534;51.028;13.716;2022-08-01T09:48:13;0.75;;;0.75;;
47772;SDS011;33534;51.028;13.716;2022-08-01T09:50:41;4.72;;;1.20;;
47772;SDS011;33534;51.028;13.716;2022-08-01T09:53:09;0.77;;;0.70;;
47772;SDS011;33534;51.028;13.716;2022-08-01T09:55:35;0.70;;;0.40;;
47772;SDS011;33534;51.028;13.716;2022-08-01T09:58:02;1.42;;;0.50;;
47772;SDS011;33534;51.028;13.716;2022-08-01T10:00:29;5.68;;;0.80;;
47772;SDS011;33534;51.028;13.716;2022-08-01T10:02:56;1.52;;;0.57;;
47772;SDS011;33534;51.028;13.716;2022-08-01T10:05:31;0.85;;;0.70;;
47772;SDS011;33534;51.028;13.716;2022-08-01T10:07:59;0.73;;;0.40;;
47772;SDS011;33534;51.028;13.716;2022-08-01T10:10:28;0.75;;;0.60;;
47772;SDS011;33534;51.028;13.716;2022-08-01T10:12:54;0.70;;;0.60;;
47772;SDS011;33534;51.028;13.716;2022-08-01T10:15:21;1.05;;;0.70;;
47772;SDS011;33534;51.028;13.716;2022-08-01T10:17:55;0.70;;;0.70;;
47772;SDS011;33534;51.028;13.716;2022-08-01T10:20:32;0.55;;;0.55;;
47772;SDS011;33534;51.028;13.716;2022-08-01T10:23:00;0.90;;;0.55;;
47772;SDS011;33534;51.028;13.716;2022-08-01T10:25:28;0.90;;;0.50;;
47772;SDS011;33534;51.028;13.716;2022-08-01T10:27:57;4.50;;;1.10;;
47772;SDS011;33534;51.028;13.716;2022-08-01T10:30:24;2.17;;;0.60;;
47772;SDS011;33534;51.028;13.716;2022-08-01T10:32:51;3.58;;;0.80;;
47772;SDS011;33534;51.028;13.716;2022-08-01T10:35:19;0.43;;;0.43;;
47772;SDS011;33534;51.028;13.716;2022-08-01T10:37:46;2.03;;;0.60;;
47772;SDS011;33534;51.028;13.716;2022-08-01T10:40:15;1.65;;;0.75;;
47772;SDS011;33534;51.028;13.716;2022-08-01T10:42:41;1.02;;;0.47;;
47772;SDS011;33534;51.028;13.716;2022-08-01T10:45:11;0.80;;;0.55;;
47772;SDS011;33534;51.028;13.716;2022-08-01T10:50:20;3.22;;;1.02;;
47772;SDS011;33534;51.028;13.716;2022-08-01T11:03:40;3.97;;;0.60;;
47772;SDS011;33534;51.028;13.716;2022-08-01T11:06:07;2.25;;;0.50;;
47772;SDS011;33534;51.028;13.716;2022-08-01T11:08:41;1.50;;;0.50;;
47772;SDS011;33534;51.028;13.716;2022-08-01T11:11:15;3.08;;;0.50;;
47772;SDS011;33534;51.028;13.716;2022-08-01T11:16:28;4.50;;;0.57;;
47772;SDS011;33534;51.028;13.716;2022-08-01T11:18:56;0.90;;;0.43;;
47772;SDS011;33534;51.028;13.716;2022-08-01T11:21:22;2.08;;;0.60;;
47772;SDS011;33534;51.028;13.716;2022-08-01T11:24:07;1.65;;;0.30;;
47772;SDS011;33534;51.028;13.716;2022-08-01T11:26:33;3.30;;;0.73;;
47772;SDS011;33534;51.028;13.716;2022-08-01T11:29:12;0.63;;;0.50;;
47772;SDS011;33534;51.028;13.716;2022-08-01T11:31:39;4.15;;;0.70;;
47772;SDS011;33534;51.028;13.716;2022-08-01T11:34:05;1.10;;;0.45;;
47772;SDS011;33534;51.028;13.716;2022-08-01T11:36:31;0.52;;;0.38;;
47772;SDS011;33534;51.028;13.716;2022-08-01T11:57:10;0.98;;;0.70;;
47772;SDS011;33534;51.028;13.716;2022-08-01T12:00:00;9.18;;;1.17;;
47772;SDS011;33534;51.028;13.716;2022-08-01T12:02:34;5.60;;;1.35;;
47772;SDS011;33534;51.028;13.716;2022-08-01T12:05:07;2.15;;;1.27;;
47772;SDS011;33534;51.028;13.716;2022-08-01T12:07:36;6.35;;;2.40;;
47772;SDS011;33534;51.028;13.716;2022-08-01T12:10:04;0.98;;;0.80;;
47772;SDS011;33534;51.028;13.716;2022-08-01T12:12:31;3.85;;;1.50;;
47772;SDS011;33534;51.028;13.716;2022-08-01T12:15:00;4.75;;;3.13;;
47772;SDS011;33534;51.028;13.716;2022-08-01T12:17:35;11.27;;;5.45;;
47772;SDS011;33534;51.028;13.716;2022-08-01T12:20:09;5.95;;;1.23;;
47772;SDS011;33534;51.028;13.716;2022-08-01T12:22:35;4.40;;;2.63;;
47772;SDS011;33534;51.028;13.716;2022-08-01T12:25:06;2.40;;;1.20;;
47772;SDS011;33534;51.028;13.716;2022-08-01T12:27:43;21.85;;;5.78;;
47772;SDS011;33534;51.028;13.716;2022-08-01T12:30:11;1.60;;;1.05;;
47772;SDS011;33534;51.028;13.716;2022-08-01T12:32:39;1.85;;;0.80;;
47772;SDS011;33534;51.028;13.716;2022-08-01T12:35:07;3.35;;;0.77;;
47772;SDS011;33534;51.028;13.716;2022-08-01T12:37:37;1.23;;;0.70;;
47772;SDS011;33534;51.028;13.716;2022-08-01T12:40:14;0.93;;;0.70;;
47772;SDS011;33534;51.028;13.716;2022-08-01T12:42:42;8.38;;;0.88;;
47772;SDS011;33534;51.028;13.716;2022-08-01T12:47:40;1.08;;;0.63;;
47772;SDS011;33534;51.028;13.716;2022-08-01T12:50:08;2.47;;;0.75;;
47772;SDS011;33534;51.028;13.716;2022-08-01T12:52:42;1.90;;;0.70;;
47772;SDS011;33534;51.028;13.716;2022-08-01T12:57:39;2.88;;;0.90;;
47772;SDS011;33534;51.028;13.716;2022-08-01T13:00:23;4.47;;;0.60;;
47772;SDS011;33534;51.028;13.716;2022-08-01T13:02:51;5.20;;;0.80;;
47772;SDS011;33534;51.028;13.716;2022-08-01T13:08:10;3.38;;;1.92;;
47772;SDS011;33534;51.028;13.716;2022-08-01T13:10:40;2.38;;;0.70;;
47772;SDS011;33534;51.028;13.716;2022-08-01T13:13:07;2.55;;;0.57;;
47772;SDS011;33534;51.028;13.716;2022-08-01T13:15:34;1.58;;;0.65;;
47772;SDS011;33534;51.028;13.716;2022-08-01T13:18:21;0.40;;;0.40;;
47772;SDS011;33534;51.028;13.716;2022-08-01T13:20:48;0.75;;;0.50;;
47772;SDS011;33534;51.028;13.716;2022-08-01T13:23:18;0.95;;;0.40;;
47772;SDS011;33534;51.028;13.716;2022-08-01T13:25:48;1.98;;;0.30;;
47772;SDS011;33534;51.028;13.716;2022-08-01T13:28:19;0.50;;;0.50;;
47772;SDS011;33534;51.028;13.716;2022-08-01T13:30:52;0.85;;;0.30;;
47772;SDS011;33534;51.028;13.716;2022-08-01T13:33:22;2.10;;;0.55;;
47772;SDS011;33534;51.028;13.716;2022-08-01T13:35:52;5.70;;;3.80;;
47772;SDS011;33534;51.028;13.716;2022-08-01T13:38:19;59.80;;;43.70;;
47772;SDS011;33534;51.028;13.716;2022-08-01T13:41:05;161.55;;;102.68;;
47772;SDS011;33534;51.028;13.716;2022-08-01T13:43:34;179.50;;;125.10;;
47772;SDS011;33534;51.028;13.716;2022-08-01T13:46:00;40.70;;;27.02;;
47772;SDS011;33534;51.028;13.716;2022-08-01T13:48:27;104.32;;;69.45;;
47772;SDS011;33534;51.028;13.716;2022-08-01T13:50:53;90.53;;;61.47;;
47772;SDS011;33534;51.028;13.716;2022-08-01T13:53:19;49.53;;;31.55;;
47772;SDS011;33534;51.028;13.716;2022-08-01T13:55:44;26.63;;;17.60;;
47772;SDS011;33534;51.028;13.716;2022-08-01T13:58:10;13.23;;;7.47;;
47772;SDS011;33534;51.028;13.716;2022-08-01T14:00:35;15.25;;;10.65;;
47772;SDS011;33534;51.028;13.716;2022-08-01T14:03:01;19.65;;;10.30;;
47772;SDS011;33534;51.028;13.716;2022-08-01T14:05:27;11.65;;;8.35;;
47772;SDS011;33534;51.028;13.716;2022-08-01T14:07:52;21.33;;;13.80;;
47772;SDS011;33534;51.028;13.716;2022-08-01T14:10:18;34.15;;;20.95;;
47772;SDS011;33534;51.028;13.716;2022-08-01T14:12:43;49.33;;;33.80;;
47772;SDS011;33534;51.028;13.716;2022-08-01T14:15:09;166.75;;;117.40;;
47772;SDS011;33534;51.028;13.716;2022-08-01T14:17:35;19.90;;;14.05;;
47772;SDS011;33534;51.028;13.716;2022-08-01T14:20:00;45.45;;;30.58;;
47772;SDS011;33534;51.028;13.716;2022-08-01T14:22:27;81.82;;;56.17;;
47772;SDS011;33534;51.028;13.716;2022-08-01T14:24:53;51.88;;;35.13;;
47772;SDS011;33534;51.028;13.716;2022-08-01T14:27:18;60.47;;;39.55;;
47772;SDS011;33534;51.028;13.716;2022-08-01T14:29:44;12.57;;;6.55;;
47772;SDS011;33534;51.028;13.716;2022-08-01T14:32:11;13.57;;;8.48;;
47772;SDS011;33534;51.028;13.716;2022-08-01T14:34:37;10.88;;;5.50;;
47772;SDS011;33534;51.028;13.716;2022-08-01T14:37:02;39.70;;;25.95;;
47772;SDS011;33534;51.028;13.716;2022-08-01T14:39:28;17.23;;;11.48;;
47772;SDS011;33534;51.028;13.716;2022-08-01T14:41:54;22.65;;;14.90;;
47772;SDS011;33534;51.028;13.716;2022-08-01T14:44:19;24.98;;;16.38;;
47772;SDS011;33534;51.028;13.716;2022-08-01T14:46:45;10.75;;;6.60;;
47772;SDS011;33534;51.028;13.716;2022-08-01T14:49:13;12.63;;;6.97;;
47772;SDS011;33534;51.028;13.716;2022-08-01T14:51:38;8.00;;;6.50;;
47772;SDS011;33534;51.028;13.716;2022-08-01T14:54:05;9.15;;;8.18;;
47772;SDS011;33534;51.028;13.716;2022-08-01T14:56:30;40.85;;;28.92;;
47772;SDS011;33534;51.028;13.716;2022-08-01T14:58:56;9.05;;;6.22;;
47772;SDS011;33534;51.028;13.716;2022-08-01T15:01:22;4.47;;;3.00;;
47772;SDS011;33534;51.028;13.716;2022-08-01T15:03:47;8.43;;;2.80;;
47772;SDS011;33534;51.028;13.716;2022-08-01T15:06:15;4.63;;;2.42;;
47772;SDS011;33534;51.028;13.716;2022-08-01T15:08:40;3.47;;;2.30;;
47772;SDS011;33534;51.028;13.716;2022-08-01T15:11:06;6.50;;;1.83;;
47772;SDS011;33534;51.028;13.716;2022-08-01T15:13:33;2.92;;;1.13;;
47772;SDS011;33534;51.028;13.716;2022-08-01T15:15:59;3.65;;;1.92;;
47772;SDS011;33534;51.028;13.716;2022-08-01T15:18:24;8.52;;;1.08;;
47772;SDS011;33534;51.028;13.716;2022-08-01T15:20:50;2.38;;;0.90;;
47772;SDS011;33534;51.028;13.716;2022-08-01T15:23:16;18.25;;;8.07;;
47772;SDS011;33534;51.028;13.716;2022-08-01T15:25:41;2.42;;;1.10;;
47772;SDS011;33534;51.028;13.716;2022-08-01T15:28:10;5.28;;;1.00;;
47772;SDS011;33534;51.028;13.716;2022-08-01T15:30:36;6.40;;;1.08;;
47772;SDS011;33534;51.028;13.716;2022-08-01T15:33:02;3.47;;;0.90;;
47772;SDS011;33534;51.028;13.716;2022-08-01T15:35:28;3.35;;;1.40;;
47772;SDS011;33534;51.028;13.716;2022-08-01T15:37:54;1.38;;;0.65;;
47772;SDS011;33534;51.028;13.716;2022-08-01T15:40:19;2.85;;;0.77;;